Flight Track Log - Related Links

Times and Time Zones

All times are in EDT time to prevent confusion due to time zone crossing. See the SWA2433 flight status page for this flight to view local times or setup timezone preferences in your user account.

Time Position Orientation Groundspeed Altitude Reporting Facility
EDT Latitude Longitude Course Direction KTS MPH feet Rate Location/Type
Fri 01:25:43 PM 27.9667 -82.5500 192° South 164 189 800  Level Tampa TRACON
Fri 01:27:01 PM 27.9000 -82.5667 192° South 210 242 4,700 3,217 Climbing Tampa TRACON
Fri 01:28:01 PM 27.8667 -82.6167 233° Southwest 226 260 8,200 2,576 Climbing Tampa TRACON
Fri 01:29:51 PM 27.9619 -82.6833 328° Northwest 249 287 12,000 1,412 Climbing Jacksonville Center
Fri 01:30:51 PM 28.0581 -82.7019 350° North 296 341 12,200 1,800 Climbing Jacksonville Center
Fri 01:31:51 PM 28.1561 -82.7256 348° North 337 388 15,600 3,000 Climbing Jacksonville Center
Fri 01:32:51 PM 28.2564 -82.7442 351° North 357 411 18,200 2,550 Climbing Jacksonville Center
Fri 01:33:51 PM 28.3628 -82.7700 348° North 370 426 20,700 2,600 Climbing Jacksonville Center
Fri 01:34:51 PM 28.4733 -82.7933 349° North 390 449 23,400 2,600 Climbing Jacksonville Center
Fri 01:35:51 PM 28.5881 -82.8217 348° North 402 463 25,900 2,200 Climbing Jacksonville Center
Fri 01:36:51 PM 28.7156 -82.8192 North 414 476 27,800 1,600 Climbing Jacksonville Center
Fri 01:37:51 PM 28.8406 -82.8144 North 422 486 29,100 1,800 Climbing Jacksonville Center
Fri 01:38:51 PM 28.9700 -82.8072 North 445 512 31,400 1,600 Climbing Jacksonville Center
Fri 01:39:51 PM 29.0953 -82.8000 North 445 512 32,300 1,450 Climbing Jacksonville Center
Fri 01:40:51 PM 29.2142 -82.8189 352° North 443 510 34,300 1,850 Climbing Jacksonville Center
Fri 01:41:51 PM 29.3250 -82.8689 339° North 425 489 36,000 1,450 Climbing Jacksonville Center
Fri 01:42:51 PM 29.4314 -82.9139 340° North 415 478 37,200 1,000 Climbing Jacksonville Center
Fri 01:43:51 PM 29.5192 -82.9736 329° Northwest 409 471 38,000 400 Climbing Jacksonville Center
Fri 01:44:51 PM 29.5669 -83.0861 296° West 383 441 38,000  Level Jacksonville Center
Fri 01:45:51 PM 29.6147 -83.1983 296° West 388 447 38,000  Level Jacksonville Center
Fri 01:46:51 PM 29.6667 -83.3206 296° West 388 447 38,000  Level Jacksonville Center
Fri 01:47:51 PM 29.7142 -83.4353 296° West 388 447 38,000  Level Jacksonville Center
Fri 01:48:51 PM 29.7617 -83.5458 296° West 393 452 38,000  Level Jacksonville Center
Fri 01:49:51 PM 29.8092 -83.6586 296° West 393 452 38,000  Level Jacksonville Center
Fri 01:50:51 PM 29.8564 -83.7692 296° West 393 452 38,000  Level Jacksonville Center
Fri 01:51:51 PM 29.9036 -83.8797 296° West 388 447 38,000  Level Jacksonville Center
Fri 01:52:51 PM 29.9486 -83.9928 295° West 383 441 38,000  Level Jacksonville Center
Fri 01:53:51 PM 29.9956 -84.1061 296° West 383 441 38,000  Level Jacksonville Center
Fri 01:54:51 PM 30.0364 -84.2075 295° West 383 441 38,000  Level Jacksonville Center
Fri 01:55:51 PM 30.0853 -84.3183 297° West 383 441 38,000  Level Jacksonville Center
Fri 01:56:51 PM 30.1319 -84.4344 295° West 383 441 38,000  Level Jacksonville Center
Fri 01:57:51 PM 30.1806 -84.5481 296° West 383 441 38,000  Level Jacksonville Center
Fri 01:58:51 PM 30.2269 -84.6644 295° West 395 455 38,000  Level Jacksonville Center
Fri 01:59:51 PM 30.2733 -84.7806 295° West 395 455 38,000  Level Jacksonville Center
Fri 02:00:51 PM 30.3197 -84.8947 295° West 395 455 38,000  Level Jacksonville Center
Fri 02:01:51 PM 30.3658 -85.0089 295° West 395 455 38,000  Level Jacksonville Center
Fri 02:02:51 PM 30.4139 -85.1256 296° West 395 455 38,000  Level Jacksonville Center
Fri 02:03:51 PM 30.4578 -85.2397 294° West 395 455 38,000  Level Jacksonville Center
Fri 02:04:51 PM 30.5039 -85.3517 296° West 395 455 38,000  Level Jacksonville Center
Fri 02:05:51 PM 30.5517 -85.4689 295° West 395 455 38,000  Level Jacksonville Center
Fri 02:06:51 PM 30.5972 -85.5833 295° West 395 455 38,000  Level Jacksonville Center
Fri 02:07:51 PM 30.6428 -85.6981 295° West 395 455 38,000  Level Jacksonville Center
Fri 02:08:51 PM 30.6903 -85.8181 295° West 395 455 38,000  Level Jacksonville Center
Fri 02:09:51 PM 30.7356 -85.9353 294° West 400 460 38,000  Level Jacksonville Center
Fri 02:10:51 PM 30.7806 -86.0503 295° West 400 460 38,000  Level Jacksonville Center
Fri 02:11:51 PM 30.8172 -86.1725 289° West 400 460 38,000  Level Jacksonville Center
Fri 02:12:51 PM 30.8181 -86.2983 270° West 390 449 38,000  Level Jacksonville Center
Fri 02:13:51 PM 30.8208 -86.4292 271° West 396 456 38,000  Level Jacksonville Center
Fri 02:14:51 PM 30.8236 -86.5525 272° West 396 456 38,000  Level Jacksonville Center
Fri 02:15:51 PM 30.8283 -86.6761 273° West 396 456 38,000  Level Jacksonville Center
Fri 02:16:51 PM 30.8203 -86.8014 266° West 391 450 38,000  Level Jacksonville Center
Fri 02:17:51 PM 30.8122 -86.9219 266° West 386 444 38,000  Level Jacksonville Center
Fri 02:18:51 PM 30.8061 -87.0475 267° West 386 444 38,000  Level Jacksonville Center
Fri 02:21:08 PM 30.7908 -87.3172 266° West 378 435 38,000  Level Houston Center
Fri 02:22:10 PM 30.7817 -87.4622 266° West 375 432 38,000  Level Houston Center
Fri 02:23:12 PM 30.7756 -87.5825 267° West 372 428 38,000  Level Houston Center
Fri 02:24:14 PM 30.7672 -87.7100 266° West 376 433 38,000  Level Houston Center
Fri 02:25:16 PM 30.7589 -87.8308 265° West 376 433 38,000  Level Houston Center
Fri 02:26:19 PM 30.7511 -87.9511 266° West 376 433 38,000  Level Houston Center
Fri 02:27:21 PM 30.7433 -88.0708 266° West 373 429 38,000  Level Houston Center
Fri 02:28:23 PM 30.7347 -88.1908 265° West 372 428 38,000  Level Houston Center
Fri 02:29:25 PM 30.7244 -88.3364 265° West 378 435 38,000  Level Houston Center
Fri 02:30:27 PM 30.7178 -88.4578 266° West 378 435 38,000  Level Houston Center
Fri 02:31:29 PM 30.7083 -88.5808 265° West 382 440 38,000  Level Houston Center
Fri 02:32:31 PM 30.6992 -88.7081 265° West 389 448 38,000  Level Houston Center
Fri 02:33:33 PM 30.6886 -88.8339 264° West 391 450 38,000  Level Houston Center
Fri 02:34:35 PM 30.6814 -88.9578 266° West 396 456 38,000  Level Houston Center
Fri 02:35:38 PM 30.6703 -89.1100 265° West 398 458 38,000  Level Houston Center
Fri 02:36:40 PM 30.6597 -89.2372 265° West 399 459 38,000  Level Houston Center
Fri 02:37:42 PM 30.6506 -89.3606 265° West 388 447 38,000 -48 Level Houston Center
Fri 02:38:44 PM 30.6425 -89.4831 266° West 383 441 37,900  Descending Houston Center
Fri 02:39:46 PM 30.6322 -89.6053 264° West 382 440 38,000 48 Climbing Houston Center
Fri 02:40:49 PM 30.6217 -89.7536 265° West 389 448 38,000  Level Houston Center
Fri 02:41:50 PM 30.6108 -89.8764 264° West 387 445 38,000  Level Houston Center
Fri 02:42:52 PM 30.6000 -89.9997 264° West 391 450 38,000  Level Houston Center
Fri 02:43:54 PM 30.5883 -90.1222 264° West 389 448 38,000  Level Houston Center
Fri 02:44:56 PM 30.5767 -90.2708 265° West 390 449 38,000  Level Houston Center
Fri 02:45:58 PM 30.5658 -90.3953 264° West 390 449 38,000  Level Houston Center
Fri 02:47:00 PM 30.5539 -90.5181 264° West 387 445 38,000  Level Houston Center
Fri 02:48:02 PM 30.5450 -90.6411 265° West 385 443 38,000  Level Houston Center
Fri 02:49:05 PM 30.5325 -90.7633 263° West 384 442 38,000  Level Houston Center
Fri 02:50:07 PM 30.5203 -90.8886 264° West 390 449 38,000  Level Houston Center
Fri 02:51:09 PM 30.5067 -91.0386 264° West 392 451 38,000 581 Level Houston Center
Fri 02:52:11 PM 30.4964 -91.1658 265° West 397 457 39,200 919 Climbing Houston Center
Fri 02:53:13 PM 30.4828 -91.2944 263° West 402 463 39,900 387 Climbing Houston Center
Fri 02:54:15 PM 30.4608 -91.4206 259° West 401 461 40,000 48 Climbing Houston Center
Fri 02:55:17 PM 30.4389 -91.5458 259° West 399 459 40,000  Level Houston Center
Fri 02:56:19 PM 30.4231 -91.6975 263° West 397 457 40,000  Level Houston Center
Fri 02:57:21 PM 30.4108 -91.8069 263° West 396 456 40,000  Level Houston Center
Fri 02:58:23 PM 30.3919 -91.9597 262° West 398 458 40,000  Level Houston Center
Fri 02:59:25 PM 30.3781 -92.0850 263° West 394 453 40,000  Level Houston Center
Fri 03:00:27 PM 30.3642 -92.2117 263° West 395 455 40,000  Level Houston Center
Fri 03:01:29 PM 30.3481 -92.3378 262° West 394 453 40,000  Level Houston Center
Fri 03:02:31 PM 30.3339 -92.4594 262° West 390 449 40,000  Level Houston Center
Fri 03:03:33 PM 30.3189 -92.5822 262° West 388 447 40,000 -48 Level Houston Center
Fri 03:04:35 PM 30.3022 -92.7253 262° West 375 432 39,900  Descending Houston Center
Fri 03:05:37 PM 30.2889 -92.8369 262° West 356 410 40,000 48 Climbing Houston Center
Fri 03:06:39 PM 30.2742 -92.9514 262° West 358 412 40,000  Level Houston Center
Fri 03:07:41 PM 30.2606 -93.0672 262° West 364 419 40,000  Level Houston Center
Fri 03:08:44 PM 30.2453 -93.1831 261° West 363 418 40,000  Level Houston Center
Fri 03:09:46 PM 30.2308 -93.2992 262° West 364 419 40,000  Level Houston Center
Fri 03:10:48 PM 30.2150 -93.4186 261° West 367 422 40,000  Level Houston Center
Fri 03:11:50 PM 30.1997 -93.5378 262° West 371 427 40,000  Level Houston Center
Fri 03:12:52 PM 30.1825 -93.6814 262° West 373 429 40,000  Level Houston Center
Fri 03:13:54 PM 30.1678 -93.8000 262° West 373 429 40,000  Level Houston Center
Fri 03:14:56 PM 30.1519 -93.9186 261° West 373 429 40,000  Level Houston Center
Fri 03:15:58 PM 30.1364 -94.0383 261° West 379 436 40,000  Level Houston Center
Fri 03:17:00 PM 30.1197 -94.1592 261° West 381 438 40,000  Level Houston Center
Fri 03:18:02 PM 30.1031 -94.2797 261° West 380 437 40,000  Level Houston Center
Fri 03:19:04 PM 30.0839 -94.4303 262° West 392 451 40,000  Level Houston Center
Fri 03:20:06 PM 30.0697 -94.5364 261° West 394 453 40,000  Level Houston Center
Fri 03:21:08 PM 30.0492 -94.6872 261° West 392 451 40,000  Level Houston Center
Fri 03:22:10 PM 30.0336 -94.8067 261° West 389 448 40,000  Level Houston Center
Fri 03:23:12 PM 30.0175 -94.9278 261° West 386 444 40,000  Level Houston Center
Fri 03:24:14 PM 30.0369 -95.0497 280° West 397 457 40,000  Level Houston Center
Fri 03:25:17 PM 30.0644 -95.1683 285° West 388 447 40,000  Level Houston Center
Fri 03:26:19 PM 30.0925 -95.3089 283° West 379 436 40,000  Level Houston Center
Fri 03:27:21 PM 30.1075 -95.4228 279° West 367 422 40,000  Level Houston Center
Fri 03:28:23 PM 30.1242 -95.5375 280° West 365 420 40,000  Level Houston Center
Fri 03:29:25 PM 30.1367 -95.6517 277° West 362 417 40,000  Level Houston Center
Fri 03:30:27 PM 30.1322 -95.7642 267° West 353 406 40,000  Level Houston Center
Fri 03:31:29 PM 30.1172 -95.8967 263° West 347 399 40,000 -290 Level Houston Center
Fri 03:32:31 PM 30.1053 -96.0058 263° West 345 397 39,400 -774 Descending Houston Center
Fri 03:33:33 PM 30.0928 -96.1267 263° West 349 402 38,400 -919 Descending Houston Center
Fri 03:34:35 PM 30.0792 -96.2450 262° West 369 425 37,500 -919 Descending Houston Center
Fri 03:35:37 PM 30.0667 -96.3611 263° West 368 423 36,500 -1,839 Descending Houston Center
Fri 03:36:39 PM 30.0550 -96.4761 263° West 363 418 33,700 -3,290 Descending Houston Center
Fri 03:37:41 PM 30.0419 -96.5953 263° West 371 427 29,700 -2,952 Descending Houston Center
Fri 03:38:43 PM 30.0281 -96.7217 263° West 394 453 27,600 -1,597 Descending Houston Center
Fri 03:39:45 PM 30.0114 -96.8700 263° West 393 452 26,400 -1,065 Descending Houston Center
Fri 03:40:47 PM 29.9981 -96.9922 263° West 388 447 25,400 -976 Descending Houston Center
Fri 03:41:48 PM 29.9850 -97.1103 263° West 376 433 24,400 -683 Descending Houston Center
Fri 03:42:50 PM 29.9711 -97.2297 262° West 378 435 24,000 -194 Descending Houston Center
Fri 03:43:52 PM 29.9575 -97.3494 263° West 379 436 24,000 -1,306 Level Houston Center
Fri 03:44:54 PM 29.9417 -97.4883 263° West 369 425 21,300 -2,468 Descending Houston Center
Fri 03:45:56 PM 29.9281 -97.5989 262° West 354 407 18,900 -2,489 Descending Houston Center
Fri 03:46:28 PM 29.9197 -97.6661 262° West 341 392 17,400 -2,613 Descending Houston Center
Fri 03:46:58 PM 29.9144 -97.7147 263° West 341 392 16,200 -2,348 Descending Houston Center
Fri 03:48:00 PM 29.9019 -97.8197 262° West 332 382 13,800 -1,655 Descending Houston Center
Fri 03:48:54 PM 29.8761 -97.9103 252° West 327 376 13,000 -1,016 Descending Houston Center
Fri 03:50:04 PM 29.8308 -98.0186 244° Southwest 324 373 11,700 -1,273 Descending Houston Center
Fri 03:51:06 PM 29.7900 -98.1169 244° Southwest 317 365 10,200 -1,261 Descending Houston Center
Fri 03:52:03 PM 29.7581 -98.1947 245° Southwest 294 338 9,200 -1,355 Descending Houston Center
Fri 03:53:10 PM 29.7178 -98.2869 243° Southwest 281 323 7,400 -1,357 Descending Houston Center
Fri 03:53:58 PM 29.6925 -98.3472 244° Southwest 276 318 6,600 -722 Descending Houston Center
Fri 03:55:23 PM 29.6594 -98.4450 249° West 231 266 5,800 -694 Descending Houston Center
Fri 03:55:59 PM 29.6658 -98.4900 279° West 235 270 5,200 -1,019 Descending Houston Center
Fri 03:56:16 PM 29.6692 -98.5119 280° West 236 272 4,900 -684 Descending Houston Center
Fri 03:57:18 PM 29.6606 -98.5719 261° West 197 227 4,300 -871 Descending Houston Center
Fri 03:58:20 PM 29.6153 -98.5764 185° South 153 176 3,100 -968 Descending Houston Center
Fri 03:59:22 PM 29.5900 -98.5453 133° Southeast 134 154 2,300 -774 Descending Houston Center
Fri 04:00:24 PM 29.5644 -98.5122 132° Southeast 129 148 1,500 -726 Descending Houston Center
Fri 04:01:26 PM 29.5408 -98.4817 132° Southeast 130 150 800 -677 Descending Houston Center
Fri 04:03:00 PM 29.5340 -98.4691 174° South  Level Estimated
Fri 04:10:00 PM 29.5333 -98.4667 16° North  Level FlightAware

Login

Don't have an account? Register now (free) for customized features, flight alerts, and more!